Time;durP1;ratioP1;P1;durP2;ratioP2;P2;SDS_P1;SDS_P2;PMS_P1;PMS_P2;Temp;Humidity;BMP_temperature;BMP_pressure;BME280_temperature;BME280_humidity;BME280_pressure;Samples;Min_cycle;Max_cycle;Signal;HPM_P1;HPM_P2
2022/11/19 00:01:58;;;;;;;;;;;19.80;43.30;;;;;;5047707;28;19909;-68
2022/11/19 00:04:25;;;;;;;;;;;19.80;43.30;;;;;;5043176;28;19925;-69
2022/11/19 00:06:51;;;;;;;;;;;19.80;43.30;;;;;;5042592;28;19913;-68
2022/11/19 00:09:18;;;;;;;;;;;19.80;43.30;;;;;;5042700;28;19945;-69
2022/11/19 00:14:33;;;;;;;;;;;19.80;43.40;;;;;;5040548;28;19917;-69
2022/11/19 00:17:00;;;;;;;;;;;19.80;43.30;;;;;;5055211;28;19916;-69
2022/11/19 00:19:27;;;;;;;;;;;19.80;43.40;;;;;;5049438;28;19913;-68
2022/11/19 00:21:53;;;;;;;;;;;19.80;43.40;;;;;;5040001;28;19913;-68
2022/11/19 00:24:21;;;;;;;;;;;19.80;43.40;;;;;;5040516;28;19913;-68
2022/11/19 00:26:48;;;;;;;;;;;19.80;43.40;;;;;;5034397;28;19968;-68
2022/11/19 00:29:14;;;;;;;;;;;19.80;43.40;;;;;;5054681;28;19924;-68
2022/11/19 00:31:43;;;;;;;;;;;19.80;43.40;;;;;;5040725;28;19913;-68
2022/11/19 00:34:10;;;;;;;;;;;19.80;43.40;;;;;;5044073;28;19923;-69
2022/11/19 00:36:37;;;;;;;;;;;19.80;43.40;;;;;;5044518;28;19913;-68
2022/11/19 00:39:03;;;;;;;;;;;19.80;43.40;;;;;;5042257;28;19939;-68
2022/11/19 00:41:30;;;;;;;;;;;19.80;43.40;;;;;;5042045;28;19909;-68
2022/11/19 00:43:57;;;;;;;;;;;19.80;43.40;;;;;;5044040;28;19910;-68
2022/11/19 00:46:24;;;;;;;;;;;19.80;43.40;;;;;;5047357;28;19932;-69
2022/11/19 00:48:53;;;;;;;;;;;19.80;43.40;;;;;;5057506;28;19913;-68
2022/11/19 00:51:20;;;;;;;;;;;19.80;43.40;;;;;;5060329;28;19913;-68
2022/11/19 00:53:46;;;;;;;;;;;19.80;43.40;;;;;;5050510;28;19910;-69
2022/11/19 00:56:15;;;;;;;;;;;19.80;43.40;;;;;;5023951;28;19920;-68
2022/11/19 00:58:42;;;;;;;;;;;19.80;43.40;;;;;;5037778;28;19976;-68
2022/11/19 01:01:09;;;;;;;;;;;19.80;43.40;;;;;;5043383;28;19932;-68
2022/11/19 01:03:35;;;;;;;;;;;19.80;43.40;;;;;;5031860;28;19913;-68
2022/11/19 01:06:03;;;;;;;;;;;19.80;43.40;;;;;;5023341;28;19909;-69
2022/11/19 01:08:30;;;;;;;;;;;19.80;43.40;;;;;;5047163;28;19909;-68
2022/11/19 01:11:03;;;;;;;;;;;19.80;43.50;;;;;;5060743;28;19924;-67
2022/11/19 01:13:36;;;;;;;;;;;19.80;43.50;;;;;;5043096;28;19916;-68
2022/11/19 01:16:03;;;;;;;;;;;19.80;43.40;;;;;;5043260;28;19909;-68
2022/11/19 01:18:30;;;;;;;;;;;19.80;43.50;;;;;;5043415;28;20027;-68
2022/11/19 01:20:57;;;;;;;;;;;19.80;43.50;;;;;;5059515;28;19909;-68
2022/11/19 01:23:25;;;;;;;;;;;19.80;43.50;;;;;;5060257;28;19927;-68
2022/11/19 01:25:51;;;;;;;;;;;19.80;43.50;;;;;;5029207;28;19921;-69
2022/11/19 01:28:18;;;;;;;;;;;19.80;43.50;;;;;;5045502;28;19919;-69
2022/11/19 01:30:45;;;;;;;;;;;19.80;43.50;;;;;;5042884;28;19932;-69
2022/11/19 01:33:12;;;;;;;;;;;19.80;43.50;;;;;;5046031;28;19951;-68
2022/11/19 01:35:39;;;;;;;;;;;19.80;43.50;;;;;;5062621;28;19912;-69
2022/11/19 01:38:06;;;;;;;;;;;19.80;43.50;;;;;;5055822;28;19910;-68
2022/11/19 01:40:36;;;;;;;;;;;19.80;43.50;;;;;;5040052;28;20026;-68
2022/11/19 01:43:03;;;;;;;;;;;19.80;43.50;;;;;;5030572;28;19980;-69
2022/11/19 01:45:31;;;;;;;;;;;19.80;43.50;;;;;;5059283;28;19935;-68
2022/11/19 01:47:58;;;;;;;;;;;19.80;43.50;;;;;;5041433;28;19913;-69
2022/11/19 01:50:25;;;;;;;;;;;19.80;43.50;;;;;;5055388;28;19921;-69
2022/11/19 01:52:52;;;;;;;;;;;19.80;43.50;;;;;;5042328;28;19913;-68
2022/11/19 01:55:19;;;;;;;;;;;19.80;43.50;;;;;;5042701;28;19909;-69
2022/11/19 01:57:47;;;;;;;;;;;19.80;43.50;;;;;;5059218;28;19917;-68
2022/11/19 02:00:14;;;;;;;;;;;19.80;43.50;;;;;;5031893;28;19909;-68
2022/11/19 02:02:41;;;;;;;;;;;19.80;43.50;;;;;;5041632;28;19913;-68
2022/11/19 02:05:08;;;;;;;;;;;19.80;43.50;;;;;;5042688;28;19963;-68
2022/11/19 02:07:35;;;;;;;;;;;19.80;44.10;;;;;;5039635;28;19933;-68
2022/11/19 02:10:02;;;;;;;;;;;19.80;43.50;;;;;;5059965;28;19916;-68
2022/11/19 02:12:31;;;;;;;;;;;19.80;43.50;;;;;;5033040;28;19914;-68
2022/11/19 02:15:05;;;;;;;;;;;19.80;43.50;;;;;;5038658;28;19910;-69
2022/11/19 02:17:37;;;;;;;;;;;19.80;43.50;;;;;;5039425;28;19980;-68
2022/11/19 02:20:15;;;;;;;;;;;19.80;43.50;;;;;;5046674;28;19940;-69
2022/11/19 02:22:58;;;;;;;;;;;19.80;43.50;;;;;;5029120;28;19913;-68
2022/11/19 02:25:28;;;;;;;;;;;19.80;43.50;;;;;;5022416;28;19913;-69
2022/11/19 02:28:04;;;;;;;;;;;19.80;43.50;;;;;;5024752;28;19910;-69
2022/11/19 02:30:32;;;;;;;;;;;19.80;43.50;;;;;;5058397;28;19913;-69
2022/11/19 02:32:59;;;;;;;;;;;19.80;43.50;;;;;;5039312;28;19936;-68
2022/11/19 02:35:29;;;;;;;;;;;19.80;43.50;;;;;;5049164;28;19921;-69
2022/11/19 02:37:56;;;;;;;;;;;19.80;43.50;;;;;;5040595;28;19956;-68
2022/11/19 02:40:23;;;;;;;;;;;19.80;43.50;;;;;;5061645;28;19913;-69
2022/11/19 02:42:52;;;;;;;;;;;19.80;43.50;;;;;;5061131;28;19931;-69
2022/11/19 02:45:19;;;;;;;;;;;19.80;43.50;;;;;;5054542;28;19909;-69
2022/11/19 02:47:47;;;;;;;;;;;19.80;43.50;;;;;;5041915;28;19939;-69
2022/11/19 02:50:15;;;;;;;;;;;19.80;43.50;;;;;;5047934;28;19924;-70
2022/11/19 02:52:42;;;;;;;;;;;19.80;43.50;;;;;;5021951;28;19981;-68
2022/11/19 02:55:10;;;;;;;;;;;19.80;43.50;;;;;;5041078;28;19984;-68
2022/11/19 02:57:37;;;;;;;;;;;19.80;43.50;;;;;;5058488;28;19912;-69
2022/11/19 03:05:54;;;;;;;;;;;19.80;43.60;;;;;;5040932;28;19948;-68
2022/11/19 03:08:21;;;;;;;;;;;19.80;43.50;;;;;;5050344;28;19983;-68
2022/11/19 03:10:48;;;;;;;;;;;19.80;43.50;;;;;;5057979;28;19936;-68
2022/11/19 03:18:47;;;;;;;;;;;19.80;43.60;;;;;;5032372;28;19951;-68
2022/11/19 03:21:15;;;;;;;;;;;19.80;43.60;;;;;;5057471;28;19941;-69
2022/11/19 03:23:42;;;;;;;;;;;19.80;43.50;;;;;;5040773;28;19926;-68
2022/11/19 03:26:10;;;;;;;;;;;19.80;43.60;;;;;;5037048;28;19910;-69
2022/11/19 03:28:37;;;;;;;;;;;19.70;43.50;;;;;;5026860;28;19909;-68
2022/11/19 03:31:04;;;;;;;;;;;19.80;43.60;;;;;;5042279;28;19921;-68
2022/11/19 03:33:31;;;;;;;;;;;19.80;43.60;;;;;;5041261;28;20057;-68
2022/11/19 03:36:00;;;;;;;;;;;19.70;43.50;;;;;;5037805;28;19932;-69
2022/11/19 03:38:27;;;;;;;;;;;19.80;43.60;;;;;;5022165;28;19921;-68
2022/11/19 03:40:54;;;;;;;;;;;19.70;43.50;;;;;;5040837;28;19952;-68
2022/11/19 03:43:21;;;;;;;;;;;19.70;43.50;;;;;;5033216;28;19914;-68
2022/11/19 03:45:48;;;;;;;;;;;19.70;43.50;;;;;;5057562;28;19914;-68
2022/11/19 03:48:15;;;;;;;;;;;19.80;43.60;;;;;;5041595;28;19977;-69
2022/11/19 03:50:43;;;;;;;;;;;19.70;43.50;;;;;;5057855;28;19972;-68
2022/11/19 03:53:11;;;;;;;;;;;19.70;43.50;;;;;;5043195;28;19913;-68
2022/11/19 03:55:40;;;;;;;;;;;19.70;43.50;;;;;;5021152;28;19910;-68
2022/11/19 03:58:07;;;;;;;;;;;19.70;43.50;;;;;;5021321;28;19944;-68
2022/11/19 04:00:34;;;;;;;;;;;19.70;43.50;;;;;;5050966;28;19913;-69
2022/11/19 04:03:00;;;;;;;;;;;19.70;43.50;;;;;;5037503;28;19945;-68
2022/11/19 04:05:27;;;;;;;;;;;19.70;43.50;;;;;;5041183;28;19939;-69
2022/11/19 04:07:54;;;;;;;;;;;19.70;43.50;;;;;;5056689;28;19981;-68
2022/11/19 04:10:22;;;;;;;;;;;19.70;43.50;;;;;;5053806;28;19980;-68
2022/11/19 04:12:49;;;;;;;;;;;19.80;43.60;;;;;;5051608;28;19914;-68
2022/11/19 04:15:16;;;;;;;;;;;19.70;43.50;;;;;;5044653;28;19909;-68
2022/11/19 04:17:42;;;;;;;;;;;19.70;43.50;;;;;;5056059;28;19924;-69
2022/11/19 04:20:09;;;;;;;;;;;19.70;43.50;;;;;;5041176;28;19916;-69
2022/11/19 04:22:36;;;;;;;;;;;19.70;43.50;;;;;;5041499;28;19933;-69
2022/11/19 04:25:05;;;;;;;;;;;19.70;43.50;;;;;;5044009;28;19913;-69
2022/11/19 04:27:33;;;;;;;;;;;19.70;43.50;;;;;;5060940;28;19915;-68
2022/11/19 04:30:00;;;;;;;;;;;19.70;43.50;;;;;;5060977;28;19909;-68
2022/11/19 04:32:27;;;;;;;;;;;19.70;43.50;;;;;;5060839;28;19960;-68
2022/11/19 04:34:53;;;;;;;;;;;19.70;43.50;;;;;;5055359;28;19923;-69
2022/11/19 04:37:20;;;;;;;;;;;19.70;43.50;;;;;;5064137;28;19931;-68
2022/11/19 04:39:47;;;;;;;;;;;19.70;43.50;;;;;;5060545;28;19924;-69
2022/11/19 04:42:14;;;;;;;;;;;19.70;43.50;;;;;;5060613;28;19913;-69
2022/11/19 04:44:42;;;;;;;;;;;19.70;43.50;;;;;;5058531;28;19932;-69
2022/11/19 04:47:09;;;;;;;;;;;19.70;43.50;;;;;;5061002;28;19939;-69
2022/11/19 04:49:35;;;;;;;;;;;19.80;43.60;;;;;;5043146;28;19932;-69
2022/11/19 04:52:02;;;;;;;;;;;19.70;43.50;;;;;;5025898;28;19910;-68
2022/11/19 04:54:29;;;;;;;;;;;19.70;43.50;;;;;;5043889;28;19913;-69
2022/11/19 04:56:56;;;;;;;;;;;19.70;43.50;;;;;;5044091;28;19909;-69
2022/11/19 04:59:22;;;;;;;;;;;19.70;43.50;;;;;;5034230;28;19909;-68
2022/11/19 05:01:51;;;;;;;;;;;19.70;43.50;;;;;;5061010;28;19972;-69
2022/11/19 05:04:17;;;;;;;;;;;19.70;43.50;;;;;;5059159;28;19944;-69
2022/11/19 05:06:44;;;;;;;;;;;19.70;43.50;;;;;;5039370;28;19914;-69
2022/11/19 05:09:11;;;;;;;;;;;19.80;43.60;;;;;;5062388;28;19913;-68
2022/11/19 05:11:38;;;;;;;;;;;19.70;43.50;;;;;;5043439;28;19921;-69
2022/11/19 05:14:04;;;;;;;;;;;19.70;43.50;;;;;;5060430;28;19916;-69
2022/11/19 05:16:31;;;;;;;;;;;19.70;43.50;;;;;;5047086;28;19948;-69
2022/11/19 05:18:59;;;;;;;;;;;19.70;43.60;;;;;;5044931;28;19913;-69
2022/11/19 05:21:26;;;;;;;;;;;19.70;43.60;;;;;;5037408;28;19924;-69
2022/11/19 05:23:53;;;;;;;;;;;19.70;43.60;;;;;;5031375;28;19911;-69
2022/11/19 05:26:20;;;;;;;;;;;19.70;43.50;;;;;;5042576;28;19921;-69
2022/11/19 05:28:46;;;;;;;;;;;19.70;43.60;;;;;;5023543;28;19922;-69
2022/11/19 05:31:13;;;;;;;;;;;19.70;43.60;;;;;;5055383;28;19913;-69
2022/11/19 05:33:40;;;;;;;;;;;19.70;43.50;;;;;;5059421;28;19915;-70
2022/11/19 05:36:09;;;;;;;;;;;19.70;43.60;;;;;;5069034;28;19947;-69
2022/11/19 05:38:36;;;;;;;;;;;19.70;43.60;;;;;;5040679;28;19909;-69
2022/11/19 05:41:03;;;;;;;;;;;19.70;43.50;;;;;;5037913;28;19917;-69
2022/11/19 05:43:29;;;;;;;;;;;19.70;43.60;;;;;;5041807;28;19909;-69
2022/11/19 05:45:59;;;;;;;;;;;19.70;43.60;;;;;;5042743;28;19909;-69
2022/11/19 05:48:25;;;;;;;;;;;19.70;43.60;;;;;;5043212;28;19984;-69
2022/11/19 05:50:52;;;;;;;;;;;19.70;43.60;;;;;;5058868;28;19973;-69
2022/11/19 05:53:20;;;;;;;;;;;19.70;43.60;;;;;;5039501;28;19940;-70
2022/11/19 05:55:47;;;;;;;;;;;19.70;43.60;;;;;;5043330;28;19917;-69
2022/11/19 05:58:14;;;;;;;;;;;19.70;43.60;;;;;;5042492;28;19913;-69
2022/11/19 06:00:41;;;;;;;;;;;19.70;43.60;;;;;;5053932;28;19915;-68
2022/11/19 06:03:08;;;;;;;;;;;19.70;43.60;;;;;;5042326;28;19940;-70
2022/11/19 06:05:35;;;;;;;;;;;19.70;43.60;;;;;;5042164;28;19909;-69
2022/11/19 06:08:01;;;;;;;;;;;19.70;43.60;;;;;;5059366;28;19933;-69
2022/11/19 06:10:29;;;;;;;;;;;19.70;43.60;;;;;;5042424;28;19935;-69
2022/11/19 06:12:56;;;;;;;;;;;19.70;43.60;;;;;;5040365;28;19923;-69
2022/11/19 06:15:23;;;;;;;;;;;19.70;43.60;;;;;;5044873;28;19913;-69
2022/11/19 06:17:50;;;;;;;;;;;19.70;43.50;;;;;;5059715;28;19976;-70
2022/11/19 06:20:17;;;;;;;;;;;19.70;43.60;;;;;;5050224;28;19913;-69
2022/11/19 06:22:43;;;;;;;;;;;19.70;43.60;;;;;;5040236;28;19916;-69
2022/11/19 06:25:10;;;;;;;;;;;19.70;43.60;;;;;;5043769;28;19972;-69
2022/11/19 06:27:38;;;;;;;;;;;19.70;43.50;;;;;;5059332;28;19920;-69
2022/11/19 06:30:06;;;;;;;;;;;19.70;43.50;;;;;;5057375;28;19924;-69
2022/11/19 06:32:33;;;;;;;;;;;19.70;43.60;;;;;;5054660;28;19932;-69
2022/11/19 06:34:59;;;;;;;;;;;19.70;43.60;;;;;;5044702;28;20000;-69
2022/11/19 06:37:26;;;;;;;;;;;19.70;43.60;;;;;;5058308;28;19916;-69
2022/11/19 06:39:54;;;;;;;;;;;19.70;43.60;;;;;;5041099;28;19913;-70
2022/11/19 06:42:36;;;;;;;;;;;19.70;43.60;;;;;;5040337;28;19948;-70
2022/11/19 06:45:04;;;;;;;;;;;19.70;43.60;;;;;;5044224;28;19976;-69
2022/11/19 06:47:31;;;;;;;;;;;19.70;43.60;;;;;;5058217;28;19948;-69
2022/11/19 06:49:58;;;;;;;;;;;19.70;43.60;;;;;;5043207;28;19932;-69
2022/11/19 06:52:24;;;;;;;;;;;19.70;43.60;;;;;;5038727;28;19933;-70
2022/11/19 06:54:51;;;;;;;;;;;19.70;44.20;;;;;;5041247;28;19924;-69
2022/11/19 06:57:18;;;;;;;;;;;19.70;43.60;;;;;;5041584;28;19980;-69
2022/11/19 06:59:45;;;;;;;;;;;19.70;43.60;;;;;;5041371;28;19910;-70
2022/11/19 07:02:13;;;;;;;;;;;19.70;43.60;;;;;;5058576;28;19915;-69
2022/11/19 07:04:40;;;;;;;;;;;19.70;43.60;;;;;;5058604;28;20000;-69
2022/11/19 07:07:06;;;;;;;;;;;19.70;43.60;;;;;;5058026;28;19913;-69
2022/11/19 07:09:33;;;;;;;;;;;19.70;43.60;;;;;;5023540;28;19923;-69
2022/11/19 07:12:00;;;;;;;;;;;19.70;43.60;;;;;;5058409;28;19917;-69
2022/11/19 07:14:27;;;;;;;;;;;19.70;43.60;;;;;;5041931;28;19913;-69
2022/11/19 07:16:53;;;;;;;;;;;19.70;43.60;;;;;;5046083;28;19913;-69
2022/11/19 07:19:22;;;;;;;;;;;19.70;43.60;;;;;;5056531;28;19912;-69
2022/11/19 07:21:48;;;;;;;;;;;19.70;43.60;;;;;;5051121;28;19909;-69
2022/11/19 07:24:16;;;;;;;;;;;19.70;43.60;;;;;;5054140;28;19984;-68
2022/11/19 07:26:43;;;;;;;;;;;19.70;43.60;;;;;;5054007;28;19936;-69
2022/11/19 07:29:10;;;;;;;;;;;19.70;43.60;;;;;;5037963;28;19909;-68
2022/11/19 07:31:37;;;;;;;;;;;19.70;43.60;;;;;;5054614;28;19980;-68
2022/11/19 07:34:05;;;;;;;;;;;19.70;43.50;;;;;;5049234;28;19913;-68
2022/11/19 07:36:33;;;;;;;;;;;19.70;43.50;;;;;;5046383;28;19913;-68
2022/11/19 07:39:00;;;;;;;;;;;19.70;43.50;;;;;;5047699;28;19944;-68
2022/11/19 07:44:12;;;;;;;;;;;19.70;43.50;;;;;;5032475;28;19913;-69
2022/11/19 07:46:38;;;;;;;;;;;19.70;43.50;;;;;;5053770;28;19913;-68
2022/11/19 07:49:05;;;;;;;;;;;19.70;43.50;;;;;;5066047;28;19923;-70
2022/11/19 07:51:33;;;;;;;;;;;19.70;43.40;;;;;;5041963;28;19916;-68
2022/11/19 07:54:00;;;;;;;;;;;19.70;43.40;;;;;;5056587;28;19917;-68
2022/11/19 07:56:27;;;;;;;;;;;19.70;43.40;;;;;;5055563;28;19995;-69
2022/11/19 07:58:53;;;;;;;;;;;19.70;43.40;;;;;;5050015;28;19967;-69
2022/11/19 08:01:21;;;;;;;;;;;19.60;43.20;;;;;;5058444;28;19916;-69
2022/11/19 08:03:48;;;;;;;;;;;19.60;43.20;;;;;;5054241;28;19913;-69
2022/11/19 08:06:15;;;;;;;;;;;19.60;43.20;;;;;;5032037;28;19932;-69
2022/11/19 08:08:43;;;;;;;;;;;19.60;43.20;;;;;;5053183;28;19913;-69
2022/11/19 08:11:10;;;;;;;;;;;19.70;43.20;;;;;;5043928;28;19920;-67
2022/11/19 08:13:38;;;;;;;;;;;19.60;43.10;;;;;;5052952;28;19909;-69
2022/11/19 08:16:05;;;;;;;;;;;19.60;43.10;;;;;;5046394;28;19925;-68
2022/11/19 08:18:31;;;;;;;;;;;19.60;43.10;;;;;;5051708;28;19908;-68
2022/11/19 08:21:02;;;;;;;;;;;19.60;43.10;;;;;;5040649;28;19945;-69
2022/11/19 08:23:29;;;;;;;;;;;19.60;43.00;;;;;;5041193;28;19924;-68
2022/11/19 08:25:57;;;;;;;;;;;19.60;43.00;;;;;;5058122;28;19913;-69
2022/11/19 08:28:24;;;;;;;;;;;19.60;43.00;;;;;;5039786;28;19936;-69
2022/11/19 08:30:50;;;;;;;;;;;19.60;43.00;;;;;;5047781;28;19988;-68
2022/11/19 08:33:17;;;;;;;;;;;19.60;42.90;;;;;;5057391;28;19912;-68
2022/11/19 08:35:44;;;;;;;;;;;19.60;42.90;;;;;;5044344;28;19909;-69
2022/11/19 08:38:11;;;;;;;;;;;19.60;42.90;;;;;;5067558;28;19909;-69
2022/11/19 08:40:37;;;;;;;;;;;19.60;42.90;;;;;;5073755;28;21053;-68
2022/11/19 08:43:05;;;;;;;;;;;19.60;42.80;;;;;;5040967;28;19909;-69
2022/11/19 08:45:32;;;;;;;;;;;19.60;42.80;;;;;;5046683;28;19915;-69
2022/11/19 08:47:59;;;;;;;;;;;19.60;42.80;;;;;;5046214;28;19920;-69
2022/11/19 08:50:26;;;;;;;;;;;19.60;42.80;;;;;;5040060;28;19944;-69
2022/11/19 08:52:53;;;;;;;;;;;19.60;42.80;;;;;;5054725;28;19945;-70
2022/11/19 08:55:20;;;;;;;;;;;19.60;42.70;;;;;;5064734;28;19963;-69
2022/11/19 08:57:47;;;;;;;;;;;19.60;42.70;;;;;;5062151;28;19935;-68
2022/11/19 09:00:16;;;;;;;;;;;19.60;42.70;;;;;;5055227;28;19909;-69
2022/11/19 09:02:43;;;;;;;;;;;19.60;42.70;;;;;;5047985;28;19909;-68
2022/11/19 09:05:10;;;;;;;;;;;19.60;42.70;;;;;;5059977;28;19939;-68
2022/11/19 09:07:37;;;;;;;;;;;19.60;42.70;;;;;;5038361;28;19917;-69
2022/11/19 09:10:04;;;;;;;;;;;19.60;42.60;;;;;;5044609;28;19951;-68
2022/11/19 09:12:33;;;;;;;;;;;19.60;42.60;;;;;;5048261;28;19939;-69
2022/11/19 09:14:59;;;;;;;;;;;19.60;42.60;;;;;;5051355;28;19913;-67
2022/11/19 09:17:28;;;;;;;;;;;19.60;42.60;;;;;;5043178;28;19976;-71
2022/11/19 09:19:54;;;;;;;;;;;19.60;42.60;;;;;;5063836;28;19931;-74
2022/11/19 09:22:21;;;;;;;;;;;19.60;42.60;;;;;;5053813;28;19989;-71
2022/11/19 09:24:48;;;;;;;;;;;19.60;42.60;;;;;;5039945;28;19909;-72
2022/11/19 09:27:15;;;;;;;;;;;19.60;42.70;;;;;;5054015;28;19992;-71
2022/11/19 09:29:41;;;;;;;;;;;19.60;42.70;;;;;;5028894;28;19941;-72
2022/11/19 09:32:08;;;;;;;;;;;19.60;42.70;;;;;;5036169;28;19917;-71
2022/11/19 09:34:39;;;;;;;;;;;19.60;42.70;;;;;;5048308;28;19912;-72
2022/11/19 09:37:06;;;;;;;;;;;19.60;42.70;;;;;;5067409;28;19932;-71
2022/11/19 09:39:33;;;;;;;;;;;19.60;42.80;;;;;;5059900;28;19920;-71
2022/11/19 09:42:02;;;;;;;;;;;19.60;42.80;;;;;;5041791;28;19916;-71
2022/11/19 09:44:44;;;;;;;;;;;19.60;42.80;;;;;;5023421;28;19913;-71
2022/11/19 09:47:17;;;;;;;;;;;19.60;42.80;;;;;;5047515;28;19913;-69
2022/11/19 09:49:45;;;;;;;;;;;19.60;42.80;;;;;;5076625;28;20040;-70
2022/11/19 09:52:13;;;;;;;;;;;19.60;42.80;;;;;;5045476;28;19925;-70
2022/11/19 09:54:41;;;;;;;;;;;19.60;42.80;;;;;;5042281;28;19923;-70
2022/11/19 09:57:11;;;;;;;;;;;19.60;42.90;;;;;;5042536;28;19909;-70
2022/11/19 09:59:38;;;;;;;;;;;19.60;42.80;;;;;;5042588;28;19924;-69
2022/11/19 10:02:09;;;;;;;;;;;19.60;42.90;;;;;;5037452;28;19924;-70
2022/11/19 10:04:36;;;;;;;;;;;19.60;42.90;;;;;;5062395;28;19913;-70
2022/11/19 10:07:06;;;;;;;;;;;19.60;42.90;;;;;;5045568;28;19909;-70
2022/11/19 10:09:41;;;;;;;;;;;19.60;42.90;;;;;;5048745;28;19909;-70
2022/11/19 10:12:14;;;;;;;;;;;19.70;43.00;;;;;;5044314;28;19909;-70
2022/11/19 10:14:45;;;;;;;;;;;19.60;42.90;;;;;;5043737;28;19921;-70
2022/11/19 10:17:15;;;;;;;;;;;19.60;42.90;;;;;;5046517;28;19917;-71
2022/11/19 10:19:43;;;;;;;;;;;19.60;43.00;;;;;;5046343;28;19917;-70
2022/11/19 10:22:13;;;;;;;;;;;19.60;43.00;;;;;;5045910;28;19967;-70
2022/11/19 10:24:41;;;;;;;;;;;19.60;43.00;;;;;;5057778;28;19916;-70
2022/11/19 10:27:13;;;;;;;;;;;19.60;43.00;;;;;;5041030;28;19913;-70
2022/11/19 10:29:39;;;;;;;;;;;19.60;43.00;;;;;;5042474;28;19924;-71
2022/11/19 10:32:11;;;;;;;;;;;19.70;43.10;;;;;;5044703;28;19944;-69
2022/11/19 10:34:38;;;;;;;;;;;19.70;43.10;;;;;;5070459;28;19917;-70
2022/11/19 10:37:06;;;;;;;;;;;19.70;43.10;;;;;;5068873;28;19921;-69
2022/11/19 10:39:35;;;;;;;;;;;19.70;43.10;;;;;;5043416;28;19910;-70
2022/11/19 10:42:03;;;;;;;;;;;19.70;43.10;;;;;;5031651;28;19917;-70
2022/11/19 10:44:42;;;;;;;;;;;19.70;43.10;;;;;;5058263;28;19914;-70
2022/11/19 10:47:10;;;;;;;;;;;19.70;43.10;;;;;;5048891;28;19913;-70
2022/11/19 10:49:39;;;;;;;;;;;19.70;43.10;;;;;;5045527;28;19916;-71
2022/11/19 10:52:06;;;;;;;;;;;19.70;43.10;;;;;;5041574;28;19909;-71
2022/11/19 10:54:36;;;;;;;;;;;19.70;43.20;;;;;;5041549;28;19921;-70
2022/11/19 10:57:02;;;;;;;;;;;19.70;43.20;;;;;;5041803;28;19921;-70
2022/11/19 10:59:30;;;;;;;;;;;19.70;43.20;;;;;;5055917;28;19971;-71
2022/11/19 11:02:00;;;;;;;;;;;19.70;43.20;;;;;;5044739;28;19909;-70
2022/11/19 11:04:28;;;;;;;;;;;19.70;43.20;;;;;;5042147;28;19920;-70
2022/11/19 11:06:56;;;;;;;;;;;19.70;43.20;;;;;;5045268;28;19909;-70
2022/11/19 11:09:27;;;;;;;;;;;19.70;43.20;;;;;;5044181;28;19982;-69
2022/11/19 11:14:54;;;;;;;;;;;19.70;43.30;;;;;;5040674;28;19914;-70
2022/11/19 11:17:21;;;;;;;;;;;19.70;43.30;;;;;;5054466;28;19909;-71
2022/11/19 11:19:55;;;;;;;;;;;19.70;43.30;;;;;;5052351;28;19912;-70
2022/11/19 11:22:22;;;;;;;;;;;19.70;43.30;;;;;;5041408;28;19916;-70
2022/11/19 11:24:49;;;;;;;;;;;19.70;43.30;;;;;;5047691;28;19909;-70
2022/11/19 11:27:20;;;;;;;;;;;19.70;43.30;;;;;;5052552;28;19914;-70
2022/11/19 11:29:47;;;;;;;;;;;19.70;43.30;;;;;;5029007;28;19924;-70
2022/11/19 11:32:26;;;;;;;;;;;19.70;43.30;;;;;;5073383;28;19913;-70
2022/11/19 11:34:52;;;;;;;;;;;19.70;43.30;;;;;;5060004;28;19923;-70
2022/11/19 11:37:21;;;;;;;;;;;19.70;43.30;;;;;;5062877;28;19909;-71
2022/11/19 11:39:49;;;;;;;;;;;19.70;43.30;;;;;;5041927;28;19914;-70
2022/11/19 11:42:16;;;;;;;;;;;19.70;43.30;;;;;;5047550;28;19913;-70
2022/11/19 11:44:49;;;;;;;;;;;19.70;43.30;;;;;;5049347;28;19909;-70
2022/11/19 11:47:16;;;;;;;;;;;19.70;43.40;;;;;;5070379;28;19913;-70
2022/11/19 11:49:46;;;;;;;;;;;19.70;43.40;;;;;;5048396;28;20186;-70
2022/11/19 11:52:14;;;;;;;;;;;19.80;43.50;;;;;;5038123;28;19921;-70
2022/11/19 11:54:53;;;;;;;;;;;19.80;43.50;;;;;;5042262;28;19910;-70
2022/11/19 11:57:23;;;;;;;;;;;19.80;43.50;;;;;;5041362;28;19924;-69
2022/11/19 11:59:51;;;;;;;;;;;19.70;43.40;;;;;;5041364;28;19939;-69
2022/11/19 12:02:19;;;;;;;;;;;19.80;43.50;;;;;;5055477;28;19923;-70
2022/11/19 12:04:50;;;;;;;;;;;19.70;43.40;;;;;;5041022;28;19910;-70
2022/11/19 12:07:19;;;;;;;;;;;19.70;43.40;;;;;;5050527;28;19937;-70
2022/11/19 12:09:48;;;;;;;;;;;19.80;43.50;;;;;;5044761;28;19913;-71
2022/11/19 12:12:16;;;;;;;;;;;19.80;43.50;;;;;;5070800;28;19908;-69
2022/11/19 12:14:45;;;;;;;;;;;19.70;43.50;;;;;;5059028;28;19976;-69
2022/11/19 12:17:17;;;;;;;;;;;19.80;43.50;;;;;;5041853;28;19913;-70
2022/11/19 12:19:54;;;;;;;;;;;19.80;43.50;;;;;;5042263;28;19913;-69
2022/11/19 12:22:24;;;;;;;;;;;19.80;43.50;;;;;;5048074;28;19968;-69
2022/11/19 12:24:55;;;;;;;;;;;19.80;43.50;;;;;;5041736;28;19909;-70
2022/11/19 12:27:22;;;;;;;;;;;19.80;43.60;;;;;;5044330;28;19976;-70
2022/11/19 12:29:51;;;;;;;;;;;19.80;43.60;;;;;;5052359;28;19920;-70
2022/11/19 12:32:23;;;;;;;;;;;19.80;43.50;;;;;;5052222;28;19921;-71
2022/11/19 12:35:00;;;;;;;;;;;19.80;43.60;;;;;;5055805;28;19984;-71
2022/11/19 12:37:32;;;;;;;;;;;19.80;43.60;;;;;;5051104;28;19913;-70
2022/11/19 12:40:00;;;;;;;;;;;19.80;43.60;;;;;;5046387;28;19920;-70
2022/11/19 12:42:30;;;;;;;;;;;19.80;43.60;;;;;;5045218;28;19913;-71
2022/11/19 12:45:01;;;;;;;;;;;19.80;43.60;;;;;;5049984;28;19923;-70
2022/11/19 12:47:33;;;;;;;;;;;19.80;43.60;;;;;;5047149;28;19928;-70
2022/11/19 12:50:05;;;;;;;;;;;19.80;43.60;;;;;;5072842;28;19919;-70
2022/11/19 12:52:35;;;;;;;;;;;19.80;43.60;;;;;;5058784;28;19908;-70
2022/11/19 12:55:04;;;;;;;;;;;19.80;43.70;;;;;;5056249;28;19931;-70
2022/11/19 12:57:38;;;;;;;;;;;19.80;43.70;;;;;;5039507;28;19948;-70
2022/11/19 13:00:09;;;;;;;;;;;19.80;43.70;;;;;;5045172;28;19951;-70
2022/11/19 13:02:40;;;;;;;;;;;19.80;43.70;;;;;;5039776;28;19909;-71
2022/11/19 13:05:07;;;;;;;;;;;19.80;43.70;;;;;;5052626;28;19941;-70
2022/11/19 13:07:35;;;;;;;;;;;19.80;43.70;;;;;;5049690;28;19908;-70
2022/11/19 13:10:02;;;;;;;;;;;19.80;43.70;;;;;;5024679;28;19909;-70
2022/11/19 13:12:31;;;;;;;;;;;19.80;43.70;;;;;;5066869;28;19916;-69
2022/11/19 13:14:59;;;;;;;;;;;19.80;43.70;;;;;;5070673;28;19984;-70
2022/11/19 13:17:26;;;;;;;;;;;19.80;43.70;;;;;;5037214;28;19909;-70
2022/11/19 13:19:56;;;;;;;;;;;19.80;43.70;;;;;;5045689;28;19992;-70
2022/11/19 13:22:23;;;;;;;;;;;19.80;43.70;;;;;;5052805;28;19909;-70
2022/11/19 13:24:51;;;;;;;;;;;19.80;43.70;;;;;;5062657;28;20219;-72
2022/11/19 13:27:19;;;;;;;;;;;19.80;43.80;;;;;;5042715;28;19928;-66
2022/11/19 13:29:47;;;;;;;;;;;19.80;43.60;;;;;;5041479;28;19917;-66
2022/11/19 13:32:16;;;;;;;;;;;19.80;41.00;;;;;;5027011;28;19909;-64
2022/11/19 13:34:49;;;;;;;;;;;19.70;38.50;;;;;;5032751;28;19947;-67
2022/11/19 13:37:18;;;;;;;;;;;19.70;37.40;;;;;;5042862;28;19941;-66
2022/11/19 13:39:45;;;;;;;;;;;19.60;36.20;;;;;;5042543;28;19940;-67
2022/11/19 13:44:56;;;;;;;;;;;19.40;35.00;;;;;;5040883;28;19941;-66
2022/11/19 13:47:24;;;;;;;;;;;19.20;33.10;;;;;;5040443;28;19945;-70
2022/11/19 13:49:52;;;;;;;;;;;19.20;33.50;;;;;;5040065;28;19913;-70
2022/11/19 13:52:22;;;;;;;;;;;19.10;34.80;;;;;;5027299;28;19909;-70
2022/11/19 13:54:49;;;;;;;;;;;19.00;35.40;;;;;;5064333;28;19968;-70
2022/11/19 13:57:24;;;;;;;;;;;19.00;35.90;;;;;;5033322;28;19939;-67
2022/11/19 13:59:52;;;;;;;;;;;19.00;36.40;;;;;;5043843;28;19972;-67
2022/11/19 14:02:33;;;;;;;;;;;19.00;37.00;;;;;;5036111;28;19920;-67
2022/11/19 14:05:04;;;;;;;;;;;19.00;37.40;;;;;;5054063;28;19920;-67
2022/11/19 14:07:38;;;;;;;;;;;19.00;37.80;;;;;;5043103;28;19916;-68
2022/11/19 14:10:08;;;;;;;;;;;19.10;38.10;;;;;;5037992;28;19981;-68
2022/11/19 14:12:38;;;;;;;;;;;19.10;38.30;;;;;;5044083;28;19976;-68
2022/11/19 14:26:40;;;;;;;;;;;19.20;39.30;;;;;;5041116;28;19924;-68
2022/11/19 14:29:07;;;;;;;;;;;19.30;39.60;;;;;;5025810;28;19913;-67
2022/11/19 14:31:34;;;;;;;;;;;19.30;39.70;;;;;;5059300;28;19917;-67
2022/11/19 14:34:02;;;;;;;;;;;19.30;39.80;;;;;;5041092;28;19924;-67
2022/11/19 14:36:42;;;;;;;;;;;19.30;39.80;;;;;;5042946;28;19909;-68
2022/11/19 14:39:15;;;;;;;;;;;19.30;39.90;;;;;;5038296;28;19909;-68
2022/11/19 14:41:42;;;;;;;;;;;19.30;40.00;;;;;;5045625;28;19913;-68
2022/11/19 14:44:12;;;;;;;;;;;19.40;40.20;;;;;;5042982;28;19910;-68
2022/11/19 14:46:44;;;;;;;;;;;19.40;40.30;;;;;;5038370;28;21415;-67
2022/11/19 14:49:29;;;;;;;;;;;19.40;40.30;;;;;;5040890;28;19933;-68
2022/11/19 14:51:56;;;;;;;;;;;19.40;40.40;;;;;;5035948;28;19940;-67
2022/11/19 14:54:27;;;;;;;;;;;19.40;40.40;;;;;;5038882;28;19909;-69
2022/11/19 14:57:01;;;;;;;;;;;19.40;40.50;;;;;;5036929;28;19909;-67